sensor_id;sensor_type;location;lat;lon;timestamp;P1;durP1;ratioP1;P2;durP2;ratioP2
76256;SDS011;65074;50.436;8.672;2023-05-07T00:00:08;3.25;;;2.60;;
76256;SDS011;65074;50.436;8.672;2023-05-07T00:02:34;4.03;;;2.90;;
76256;SDS011;65074;50.436;8.672;2023-05-07T00:05:01;3.65;;;2.45;;
76256;SDS011;65074;50.436;8.672;2023-05-07T00:07:27;4.18;;;2.50;;
76256;SDS011;65074;50.436;8.672;2023-05-07T00:09:53;5.35;;;2.92;;
76256;SDS011;65074;50.436;8.672;2023-05-07T00:12:18;4.38;;;3.00;;
76256;SDS011;65074;50.436;8.672;2023-05-07T00:14:43;3.42;;;2.50;;
76256;SDS011;65074;50.436;8.672;2023-05-07T00:17:09;3.38;;;2.90;;
76256;SDS011;65074;50.436;8.672;2023-05-07T00:19:34;4.63;;;2.97;;
76256;SDS011;65074;50.436;8.672;2023-05-07T00:21:59;3.65;;;2.42;;
76256;SDS011;65074;50.436;8.672;2023-05-07T00:24:25;5.72;;;2.90;;
76256;SDS011;65074;50.436;8.672;2023-05-07T00:26:50;3.70;;;2.95;;
76256;SDS011;65074;50.436;8.672;2023-05-07T00:29:16;3.40;;;2.72;;
76256;SDS011;65074;50.436;8.672;2023-05-07T00:31:41;4.38;;;3.08;;
76256;SDS011;65074;50.436;8.672;2023-05-07T00:34:06;5.25;;;3.03;;
76256;SDS011;65074;50.436;8.672;2023-05-07T00:36:32;3.42;;;3.00;;
76256;SDS011;65074;50.436;8.672;2023-05-07T00:38:58;4.68;;;3.40;;
76256;SDS011;65074;50.436;8.672;2023-05-07T00:41:25;5.03;;;2.97;;
76256;SDS011;65074;50.436;8.672;2023-05-07T00:43:51;6.18;;;3.80;;
76256;SDS011;65074;50.436;8.672;2023-05-07T00:46:17;6.00;;;3.28;;
76256;SDS011;65074;50.436;8.672;2023-05-07T00:48:45;3.92;;;3.00;;
76256;SDS011;65074;50.436;8.672;2023-05-07T00:51:10;4.80;;;2.92;;
76256;SDS011;65074;50.436;8.672;2023-05-07T00:53:36;5.38;;;3.50;;
76256;SDS011;65074;50.436;8.672;2023-05-07T00:56:02;4.55;;;2.83;;
76256;SDS011;65074;50.436;8.672;2023-05-07T00:58:27;3.53;;;3.03;;
76256;SDS011;65074;50.436;8.672;2023-05-07T01:00:53;5.22;;;3.42;;
76256;SDS011;65074;50.436;8.672;2023-05-07T01:03:18;5.00;;;3.55;;
76256;SDS011;65074;50.436;8.672;2023-05-07T01:05:43;5.65;;;3.63;;
76256;SDS011;65074;50.436;8.672;2023-05-07T01:08:11;4.93;;;3.35;;
76256;SDS011;65074;50.436;8.672;2023-05-07T01:10:38;5.40;;;3.58;;
76256;SDS011;65074;50.436;8.672;2023-05-07T01:13:08;6.57;;;3.85;;
76256;SDS011;65074;50.436;8.672;2023-05-07T01:15:35;5.28;;;2.97;;
76256;SDS011;65074;50.436;8.672;2023-05-07T01:18:01;5.15;;;3.90;;
76256;SDS011;65074;50.436;8.672;2023-05-07T01:20:31;5.13;;;4.35;;
76256;SDS011;65074;50.436;8.672;2023-05-07T01:22:57;7.20;;;4.53;;
76256;SDS011;65074;50.436;8.672;2023-05-07T01:25:22;6.15;;;3.90;;
76256;SDS011;65074;50.436;8.672;2023-05-07T01:27:51;6.15;;;4.50;;
76256;SDS011;65074;50.436;8.672;2023-05-07T01:30:20;6.35;;;3.15;;
76256;SDS011;65074;50.436;8.672;2023-05-07T01:32:56;7.43;;;4.57;;
76256;SDS011;65074;50.436;8.672;2023-05-07T01:35:27;6.85;;;4.05;;
76256;SDS011;65074;50.436;8.672;2023-05-07T01:37:57;5.63;;;3.88;;
76256;SDS011;65074;50.436;8.672;2023-05-07T01:40:23;5.65;;;4.18;;
76256;SDS011;65074;50.436;8.672;2023-05-07T01:42:49;6.00;;;4.47;;
76256;SDS011;65074;50.436;8.672;2023-05-07T01:45:15;7.75;;;4.50;;
76256;SDS011;65074;50.436;8.672;2023-05-07T01:47:41;4.40;;;3.53;;
76256;SDS011;65074;50.436;8.672;2023-05-07T01:50:07;7.50;;;4.25;;
76256;SDS011;65074;50.436;8.672;2023-05-07T01:52:35;6.15;;;4.45;;
76256;SDS011;65074;50.436;8.672;2023-05-07T01:55:02;11.68;;;4.60;;
76256;SDS011;65074;50.436;8.672;2023-05-07T01:57:28;5.70;;;4.32;;
76256;SDS011;65074;50.436;8.672;2023-05-07T01:59:53;7.63;;;4.82;;
76256;SDS011;65074;50.436;8.672;2023-05-07T02:02:18;6.32;;;4.55;;
76256;SDS011;65074;50.436;8.672;2023-05-07T02:04:44;7.15;;;4.50;;
76256;SDS011;65074;50.436;8.672;2023-05-07T02:07:11;5.25;;;3.90;;
76256;SDS011;65074;50.436;8.672;2023-05-07T02:09:37;5.55;;;3.67;;
76256;SDS011;65074;50.436;8.672;2023-05-07T02:12:03;5.80;;;4.90;;
76256;SDS011;65074;50.436;8.672;2023-05-07T02:14:29;6.07;;;4.20;;
76256;SDS011;65074;50.436;8.672;2023-05-07T02:16:55;5.45;;;4.05;;
76256;SDS011;65074;50.436;8.672;2023-05-07T02:19:20;5.63;;;4.35;;
76256;SDS011;65074;50.436;8.672;2023-05-07T02:21:46;5.18;;;4.00;;
76256;SDS011;65074;50.436;8.672;2023-05-07T02:24:12;5.28;;;3.88;;
76256;SDS011;65074;50.436;8.672;2023-05-07T02:26:39;7.40;;;3.72;;
76256;SDS011;65074;50.436;8.672;2023-05-07T02:29:05;5.90;;;4.10;;
76256;SDS011;65074;50.436;8.672;2023-05-07T02:31:31;5.07;;;3.80;;
76256;SDS011;65074;50.436;8.672;2023-05-07T02:33:59;5.13;;;3.92;;
76256;SDS011;65074;50.436;8.672;2023-05-07T02:36:25;5.47;;;4.25;;
76256;SDS011;65074;50.436;8.672;2023-05-07T02:39:12;4.93;;;4.00;;
76256;SDS011;65074;50.436;8.672;2023-05-07T02:41:38;4.40;;;3.85;;
76256;SDS011;65074;50.436;8.672;2023-05-07T02:44:04;7.57;;;4.70;;
76256;SDS011;65074;50.436;8.672;2023-05-07T02:46:30;6.45;;;3.95;;
76256;SDS011;65074;50.436;8.672;2023-05-07T02:49:00;5.88;;;4.03;;
76256;SDS011;65074;50.436;8.672;2023-05-07T02:51:26;5.38;;;3.65;;
76256;SDS011;65074;50.436;8.672;2023-05-07T02:53:54;6.05;;;3.90;;
76256;SDS011;65074;50.436;8.672;2023-05-07T02:56:20;5.72;;;3.97;;
76256;SDS011;65074;50.436;8.672;2023-05-07T02:58:46;4.70;;;4.00;;
76256;SDS011;65074;50.436;8.672;2023-05-07T03:01:12;6.70;;;4.75;;
76256;SDS011;65074;50.436;8.672;2023-05-07T03:03:57;5.25;;;3.88;;
76256;SDS011;65074;50.436;8.672;2023-05-07T03:06:23;5.18;;;3.97;;
76256;SDS011;65074;50.436;8.672;2023-05-07T03:08:48;5.70;;;4.10;;
76256;SDS011;65074;50.436;8.672;2023-05-07T03:11:14;5.25;;;4.25;;
76256;SDS011;65074;50.436;8.672;2023-05-07T03:13:39;6.47;;;3.58;;
76256;SDS011;65074;50.436;8.672;2023-05-07T03:16:05;7.72;;;4.18;;
76256;SDS011;65074;50.436;8.672;2023-05-07T03:18:30;6.20;;;4.22;;
76256;SDS011;65074;50.436;8.672;2023-05-07T03:20:56;5.45;;;3.60;;
76256;SDS011;65074;50.436;8.672;2023-05-07T03:23:22;6.25;;;4.07;;
76256;SDS011;65074;50.436;8.672;2023-05-07T03:25:47;4.90;;;3.80;;
76256;SDS011;65074;50.436;8.672;2023-05-07T03:28:12;7.63;;;4.43;;
76256;SDS011;65074;50.436;8.672;2023-05-07T03:30:44;5.95;;;4.13;;
76256;SDS011;65074;50.436;8.672;2023-05-07T03:33:10;4.95;;;3.90;;
76256;SDS011;65074;50.436;8.672;2023-05-07T03:35:35;6.95;;;4.20;;
76256;SDS011;65074;50.436;8.672;2023-05-07T03:38:01;5.60;;;3.80;;
76256;SDS011;65074;50.436;8.672;2023-05-07T03:40:29;4.72;;;4.10;;
76256;SDS011;65074;50.436;8.672;2023-05-07T03:42:54;6.18;;;4.13;;
76256;SDS011;65074;50.436;8.672;2023-05-07T03:45:23;5.45;;;4.10;;
76256;SDS011;65074;50.436;8.672;2023-05-07T03:47:57;4.97;;;3.83;;
76256;SDS011;65074;50.436;8.672;2023-05-07T03:50:23;5.40;;;3.72;;
76256;SDS011;65074;50.436;8.672;2023-05-07T03:52:48;5.50;;;4.13;;
76256;SDS011;65074;50.436;8.672;2023-05-07T03:55:16;7.07;;;4.25;;
76256;SDS011;65074;50.436;8.672;2023-05-07T03:57:47;5.35;;;3.67;;
76256;SDS011;65074;50.436;8.672;2023-05-07T04:00:13;5.40;;;3.63;;
76256;SDS011;65074;50.436;8.672;2023-05-07T04:02:48;6.03;;;3.88;;
76256;SDS011;65074;50.436;8.672;2023-05-07T04:05:17;9.18;;;4.85;;
76256;SDS011;65074;50.436;8.672;2023-05-07T04:07:45;6.95;;;4.47;;
76256;SDS011;65074;50.436;8.672;2023-05-07T04:10:12;7.43;;;4.20;;
76256;SDS011;65074;50.436;8.672;2023-05-07T04:12:40;9.50;;;4.75;;
76256;SDS011;65074;50.436;8.672;2023-05-07T04:15:07;7.32;;;4.38;;
76256;SDS011;65074;50.436;8.672;2023-05-07T04:17:32;6.32;;;4.25;;
76256;SDS011;65074;50.436;8.672;2023-05-07T04:19:58;7.05;;;4.32;;
76256;SDS011;65074;50.436;8.672;2023-05-07T04:22:25;7.95;;;4.93;;
76256;SDS011;65074;50.436;8.672;2023-05-07T04:24:50;5.05;;;4.20;;
76256;SDS011;65074;50.436;8.672;2023-05-07T04:27:16;9.15;;;5.10;;
76256;SDS011;65074;50.436;8.672;2023-05-07T04:29:41;9.02;;;4.65;;
76256;SDS011;65074;50.436;8.672;2023-05-07T04:32:10;8.77;;;5.13;;
76256;SDS011;65074;50.436;8.672;2023-05-07T04:34:38;8.82;;;4.50;;
76256;SDS011;65074;50.436;8.672;2023-05-07T04:37:04;7.55;;;4.85;;
76256;SDS011;65074;50.436;8.672;2023-05-07T04:39:29;8.73;;;4.82;;
76256;SDS011;65074;50.436;8.672;2023-05-07T04:41:55;9.23;;;4.78;;
76256;SDS011;65074;50.436;8.672;2023-05-07T04:44:21;8.18;;;4.88;;
76256;SDS011;65074;50.436;8.672;2023-05-07T04:46:47;7.72;;;4.57;;
76256;SDS011;65074;50.436;8.672;2023-05-07T04:49:12;7.93;;;5.13;;
76256;SDS011;65074;50.436;8.672;2023-05-07T04:51:38;7.88;;;4.47;;
76256;SDS011;65074;50.436;8.672;2023-05-07T04:54:04;6.13;;;4.40;;
76256;SDS011;65074;50.436;8.672;2023-05-07T04:56:30;6.13;;;4.20;;
76256;SDS011;65074;50.436;8.672;2023-05-07T04:58:56;5.57;;;4.30;;
76256;SDS011;65074;50.436;8.672;2023-05-07T05:01:21;5.35;;;4.15;;
76256;SDS011;65074;50.436;8.672;2023-05-07T05:03:47;5.75;;;4.43;;
76256;SDS011;65074;50.436;8.672;2023-05-07T05:06:13;6.40;;;4.50;;
76256;SDS011;65074;50.436;8.672;2023-05-07T05:08:38;7.40;;;4.15;;
76256;SDS011;65074;50.436;8.672;2023-05-07T05:11:04;4.90;;;3.72;;
76256;SDS011;65074;50.436;8.672;2023-05-07T05:13:32;6.25;;;4.70;;
76256;SDS011;65074;50.436;8.672;2023-05-07T05:15:58;6.20;;;4.30;;
76256;SDS011;65074;50.436;8.672;2023-05-07T05:18:28;7.70;;;4.53;;
76256;SDS011;65074;50.436;8.672;2023-05-07T05:20:54;6.57;;;4.82;;
76256;SDS011;65074;50.436;8.672;2023-05-07T05:23:20;4.85;;;3.83;;
76256;SDS011;65074;50.436;8.672;2023-05-07T05:25:45;8.00;;;5.72;;
76256;SDS011;65074;50.436;8.672;2023-05-07T05:28:13;7.07;;;4.00;;
76256;SDS011;65074;50.436;8.672;2023-05-07T05:30:38;6.55;;;4.95;;
76256;SDS011;65074;50.436;8.672;2023-05-07T05:33:04;7.90;;;5.10;;
76256;SDS011;65074;50.436;8.672;2023-05-07T05:35:30;6.47;;;5.00;;
76256;SDS011;65074;50.436;8.672;2023-05-07T05:37:56;6.80;;;4.47;;
76256;SDS011;65074;50.436;8.672;2023-05-07T05:40:22;10.20;;;5.18;;
76256;SDS011;65074;50.436;8.672;2023-05-07T05:42:48;9.13;;;5.35;;
76256;SDS011;65074;50.436;8.672;2023-05-07T05:45:15;8.05;;;4.72;;
76256;SDS011;65074;50.436;8.672;2023-05-07T05:47:41;8.05;;;5.32;;
76256;SDS011;65074;50.436;8.672;2023-05-07T05:50:07;7.85;;;5.47;;
76256;SDS011;65074;50.436;8.672;2023-05-07T05:52:32;8.18;;;4.97;;
76256;SDS011;65074;50.436;8.672;2023-05-07T05:54:58;6.50;;;4.88;;
76256;SDS011;65074;50.436;8.672;2023-05-07T05:57:24;7.63;;;5.70;;
76256;SDS011;65074;50.436;8.672;2023-05-07T05:59:50;8.63;;;6.32;;
76256;SDS011;65074;50.436;8.672;2023-05-07T06:02:15;7.25;;;5.60;;
76256;SDS011;65074;50.436;8.672;2023-05-07T06:04:41;7.72;;;5.82;;
76256;SDS011;65074;50.436;8.672;2023-05-07T06:07:08;7.80;;;5.60;;
76256;SDS011;65074;50.436;8.672;2023-05-07T06:09:33;10.10;;;6.78;;
76256;SDS011;65074;50.436;8.672;2023-05-07T06:11:59;7.30;;;5.57;;
76256;SDS011;65074;50.436;8.672;2023-05-07T06:14:25;9.73;;;6.20;;
76256;SDS011;65074;50.436;8.672;2023-05-07T06:16:51;8.40;;;6.07;;
76256;SDS011;65074;50.436;8.672;2023-05-07T06:19:20;8.27;;;5.70;;
76256;SDS011;65074;50.436;8.672;2023-05-07T06:21:52;9.25;;;6.22;;
76256;SDS011;65074;50.436;8.672;2023-05-07T06:24:18;9.30;;;6.15;;
76256;SDS011;65074;50.436;8.672;2023-05-07T06:26:44;9.68;;;6.40;;
76256;SDS011;65074;50.436;8.672;2023-05-07T06:29:09;10.30;;;6.00;;
76256;SDS011;65074;50.436;8.672;2023-05-07T06:31:35;9.85;;;6.55;;
76256;SDS011;65074;50.436;8.672;2023-05-07T06:34:03;10.57;;;6.07;;
76256;SDS011;65074;50.436;8.672;2023-05-07T06:36:33;7.82;;;5.25;;
76256;SDS011;65074;50.436;8.672;2023-05-07T06:39:03;9.52;;;6.70;;
76256;SDS011;65074;50.436;8.672;2023-05-07T06:41:29;11.43;;;6.28;;
76256;SDS011;65074;50.436;8.672;2023-05-07T06:43:59;8.98;;;6.20;;
76256;SDS011;65074;50.436;8.672;2023-05-07T06:46:30;9.48;;;6.22;;
76256;SDS011;65074;50.436;8.672;2023-05-07T06:48:56;10.10;;;6.80;;
76256;SDS011;65074;50.436;8.672;2023-05-07T06:51:22;8.82;;;6.10;;
76256;SDS011;65074;50.436;8.672;2023-05-07T06:53:48;9.65;;;6.38;;
76256;SDS011;65074;50.436;8.672;2023-05-07T06:56:13;11.70;;;7.72;;
76256;SDS011;65074;50.436;8.672;2023-05-07T06:58:39;11.10;;;6.85;;
76256;SDS011;65074;50.436;8.672;2023-05-07T07:01:05;9.35;;;6.55;;
76256;SDS011;65074;50.436;8.672;2023-05-07T07:03:31;8.20;;;6.03;;
76256;SDS011;65074;50.436;8.672;2023-05-07T07:05:57;10.00;;;6.50;;
76256;SDS011;65074;50.436;8.672;2023-05-07T07:08:23;8.98;;;6.13;;
76256;SDS011;65074;50.436;8.672;2023-05-07T07:10:49;7.60;;;5.93;;
76256;SDS011;65074;50.436;8.672;2023-05-07T07:13:15;8.68;;;6.40;;
76256;SDS011;65074;50.436;8.672;2023-05-07T07:15:40;9.02;;;6.15;;
76256;SDS011;65074;50.436;8.672;2023-05-07T07:18:06;10.13;;;6.63;;
76256;SDS011;65074;50.436;8.672;2023-05-07T07:20:32;9.38;;;6.38;;
76256;SDS011;65074;50.436;8.672;2023-05-07T07:22:58;8.88;;;6.28;;
76256;SDS011;65074;50.436;8.672;2023-05-07T07:25:23;7.90;;;5.70;;
76256;SDS011;65074;50.436;8.672;2023-05-07T07:27:49;8.40;;;6.03;;
76256;SDS011;65074;50.436;8.672;2023-05-07T07:30:15;9.18;;;6.03;;
76256;SDS011;65074;50.436;8.672;2023-05-07T07:35:10;8.20;;;5.60;;
76256;SDS011;65074;50.436;8.672;2023-05-07T07:37:36;6.90;;;4.50;;
76256;SDS011;65074;50.436;8.672;2023-05-07T07:40:01;6.10;;;4.50;;
76256;SDS011;65074;50.436;8.672;2023-05-07T07:42:28;8.07;;;5.35;;
76256;SDS011;65074;50.436;8.672;2023-05-07T07:44:55;8.45;;;5.32;;
76256;SDS011;65074;50.436;8.672;2023-05-07T07:47:22;7.45;;;5.20;;
76256;SDS011;65074;50.436;8.672;2023-05-07T07:49:49;6.72;;;5.55;;
76256;SDS011;65074;50.436;8.672;2023-05-07T07:52:14;8.68;;;5.28;;
76256;SDS011;65074;50.436;8.672;2023-05-07T07:54:42;8.55;;;6.07;;
76256;SDS011;65074;50.436;8.672;2023-05-07T07:57:08;8.10;;;5.80;;
76256;SDS011;65074;50.436;8.672;2023-05-07T07:59:34;6.43;;;5.43;;
76256;SDS011;65074;50.436;8.672;2023-05-07T08:01:59;7.78;;;5.53;;
76256;SDS011;65074;50.436;8.672;2023-05-07T08:04:28;7.38;;;5.35;;
76256;SDS011;65074;50.436;8.672;2023-05-07T08:06:55;7.40;;;5.55;;
76256;SDS011;65074;50.436;8.672;2023-05-07T08:09:22;6.97;;;5.35;;
76256;SDS011;65074;50.436;8.672;2023-05-07T08:11:48;7.43;;;5.60;;
76256;SDS011;65074;50.436;8.672;2023-05-07T08:14:14;5.55;;;5.05;;
76256;SDS011;65074;50.436;8.672;2023-05-07T08:16:41;7.20;;;5.43;;
76256;SDS011;65074;50.436;8.672;2023-05-07T08:19:06;7.03;;;5.65;;
76256;SDS011;65074;50.436;8.672;2023-05-07T08:21:32;7.80;;;5.30;;
76256;SDS011;65074;50.436;8.672;2023-05-07T08:23:59;6.85;;;5.10;;
76256;SDS011;65074;50.436;8.672;2023-05-07T08:26:24;7.78;;;5.18;;
76256;SDS011;65074;50.436;8.672;2023-05-07T08:28:50;7.18;;;4.70;;
76256;SDS011;65074;50.436;8.672;2023-05-07T08:31:16;5.40;;;4.60;;
76256;SDS011;65074;50.436;8.672;2023-05-07T08:33:43;5.70;;;4.35;;
76256;SDS011;65074;50.436;8.672;2023-05-07T08:36:08;5.20;;;4.47;;
76256;SDS011;65074;50.436;8.672;2023-05-07T08:38:34;6.70;;;4.97;;
76256;SDS011;65074;50.436;8.672;2023-05-07T08:41:00;7.95;;;4.57;;
76256;SDS011;65074;50.436;8.672;2023-05-07T08:43:26;5.18;;;4.63;;
76256;SDS011;65074;50.436;8.672;2023-05-07T08:45:53;7.65;;;4.95;;
76256;SDS011;65074;50.436;8.672;2023-05-07T08:48:22;5.15;;;4.35;;
76256;SDS011;65074;50.436;8.672;2023-05-07T08:50:57;6.43;;;4.78;;
76256;SDS011;65074;50.436;8.672;2023-05-07T08:53:23;6.20;;;4.82;;
76256;SDS011;65074;50.436;8.672;2023-05-07T08:55:49;5.18;;;4.45;;
76256;SDS011;65074;50.436;8.672;2023-05-07T08:58:15;7.05;;;4.80;;
76256;SDS011;65074;50.436;8.672;2023-05-07T09:00:42;5.80;;;4.90;;
76256;SDS011;65074;50.436;8.672;2023-05-07T09:03:07;5.60;;;4.88;;
76256;SDS011;65074;50.436;8.672;2023-05-07T09:05:34;7.43;;;4.97;;
76256;SDS011;65074;50.436;8.672;2023-05-07T09:08:03;6.60;;;5.20;;
76256;SDS011;65074;50.436;8.672;2023-05-07T09:10:32;6.43;;;5.32;;
76256;SDS011;65074;50.436;8.672;2023-05-07T09:12:59;7.45;;;5.78;;
76256;SDS011;65074;50.436;8.672;2023-05-07T09:15:24;5.00;;;4.50;;
76256;SDS011;65074;50.436;8.672;2023-05-07T09:17:53;5.07;;;4.57;;
76256;SDS011;65074;50.436;8.672;2023-05-07T09:20:18;5.63;;;4.82;;
76256;SDS011;65074;50.436;8.672;2023-05-07T09:22:44;5.40;;;4.90;;
76256;SDS011;65074;50.436;8.672;2023-05-07T09:27:38;5.90;;;4.60;;
76256;SDS011;65074;50.436;8.672;2023-05-07T09:30:07;6.65;;;4.63;;
76256;SDS011;65074;50.436;8.672;2023-05-07T09:32:34;6.78;;;5.15;;
76256;SDS011;65074;50.436;8.672;2023-05-07T09:35:03;7.97;;;5.13;;
76256;SDS011;65074;50.436;8.672;2023-05-07T09:37:30;6.28;;;5.63;;
76256;SDS011;65074;50.436;8.672;2023-05-07T09:39:56;6.03;;;5.10;;
76256;SDS011;65074;50.436;8.672;2023-05-07T09:42:23;7.95;;;5.47;;
76256;SDS011;65074;50.436;8.672;2023-05-07T09:44:52;6.32;;;5.30;;
76256;SDS011;65074;50.436;8.672;2023-05-07T09:47:23;6.28;;;4.97;;
76256;SDS011;65074;50.436;8.672;2023-05-07T09:49:52;5.68;;;5.05;;
76256;SDS011;65074;50.436;8.672;2023-05-07T09:52:22;5.50;;;4.97;;
76256;SDS011;65074;50.436;8.672;2023-05-07T09:57:21;8.77;;;5.75;;
76256;SDS011;65074;50.436;8.672;2023-05-07T09:59:53;5.50;;;4.90;;
76256;SDS011;65074;50.436;8.672;2023-05-07T10:02:20;6.53;;;5.65;;
76256;SDS011;65074;50.436;8.672;2023-05-07T10:04:50;7.05;;;5.88;;
76256;SDS011;65074;50.436;8.672;2023-05-07T10:07:20;5.88;;;4.90;;
76256;SDS011;65074;50.436;8.672;2023-05-07T10:09:49;6.72;;;5.13;;
76256;SDS011;65074;50.436;8.672;2023-05-07T10:12:26;7.43;;;5.70;;
76256;SDS011;65074;50.436;8.672;2023-05-07T10:14:52;9.20;;;5.82;;
76256;SDS011;65074;50.436;8.672;2023-05-07T10:17:20;7.80;;;5.85;;
76256;SDS011;65074;50.436;8.672;2023-05-07T10:19:48;7.63;;;6.22;;
76256;SDS011;65074;50.436;8.672;2023-05-07T10:22:16;9.40;;;6.05;;
76256;SDS011;65074;50.436;8.672;2023-05-07T10:24:45;7.85;;;5.93;;
76256;SDS011;65074;50.436;8.672;2023-05-07T10:27:17;17.08;;;7.18;;
76256;SDS011;65074;50.436;8.672;2023-05-07T10:32:40;8.90;;;6.82;;
76256;SDS011;65074;50.436;8.672;2023-05-07T10:35:22;9.55;;;5.80;;
76256;SDS011;65074;50.436;8.672;2023-05-07T10:37:53;8.13;;;5.90;;
76256;SDS011;65074;50.436;8.672;2023-05-07T10:40:23;7.47;;;5.80;;
76256;SDS011;65074;50.436;8.672;2023-05-07T10:42:57;7.68;;;5.88;;
76256;SDS011;65074;50.436;8.672;2023-05-07T10:45:33;6.63;;;5.85;;
76256;SDS011;65074;50.436;8.672;2023-05-07T10:48:10;6.22;;;5.63;;
76256;SDS011;65074;50.436;8.672;2023-05-07T10:50:38;7.95;;;5.70;;
76256;SDS011;65074;50.436;8.672;2023-05-07T10:55:42;7.18;;;5.57;;
76256;SDS011;65074;50.436;8.672;2023-05-07T10:58:22;7.18;;;6.25;;
76256;SDS011;65074;50.436;8.672;2023-05-07T11:00:59;7.47;;;6.28;;
76256;SDS011;65074;50.436;8.672;2023-05-07T11:03:31;6.22;;;5.20;;
76256;SDS011;65074;50.436;8.672;2023-05-07T11:06:11;6.63;;;4.97;;
76256;SDS011;65074;50.436;8.672;2023-05-07T11:08:55;5.50;;;5.00;;
76256;SDS011;65074;50.436;8.672;2023-05-07T11:11:45;6.38;;;4.90;;
76256;SDS011;65074;50.436;8.672;2023-05-07T11:17:09;7.65;;;5.80;;
76256;SDS011;65074;50.436;8.672;2023-05-07T11:19:54;6.85;;;5.45;;
76256;SDS011;65074;50.436;8.672;2023-05-07T11:22:38;5.65;;;5.03;;
76256;SDS011;65074;50.436;8.672;2023-05-07T11:25:17;8.20;;;5.53;;
76256;SDS011;65074;50.436;8.672;2023-05-07T11:27:44;6.70;;;5.15;;
76256;SDS011;65074;50.436;8.672;2023-05-07T11:30:11;5.63;;;4.57;;
76256;SDS011;65074;50.436;8.672;2023-05-07T11:32:42;9.30;;;5.00;;
76256;SDS011;65074;50.436;8.672;2023-05-07T11:35:08;5.82;;;5.22;;
76256;SDS011;65074;50.436;8.672;2023-05-07T11:37:33;6.30;;;5.20;;
76256;SDS011;65074;50.436;8.672;2023-05-07T11:40:05;5.22;;;4.32;;
76256;SDS011;65074;50.436;8.672;2023-05-07T11:42:33;10.50;;;4.88;;
76256;SDS011;65074;50.436;8.672;2023-05-07T11:45:00;5.60;;;4.72;;
76256;SDS011;65074;50.436;8.672;2023-05-07T11:47:26;5.63;;;5.03;;
76256;SDS011;65074;50.436;8.672;2023-05-07T11:49:55;5.32;;;4.70;;
76256;SDS011;65074;50.436;8.672;2023-05-07T11:52:21;6.05;;;5.18;;
76256;SDS011;65074;50.436;8.672;2023-05-07T11:54:53;5.65;;;5.10;;
76256;SDS011;65074;50.436;8.672;2023-05-07T11:57:21;8.75;;;4.75;;
76256;SDS011;65074;50.436;8.672;2023-05-07T11:59:47;4.53;;;3.95;;
76256;SDS011;65074;50.436;8.672;2023-05-07T12:02:13;7.60;;;4.70;;
76256;SDS011;65074;50.436;8.672;2023-05-07T12:04:40;6.50;;;5.10;;
76256;SDS011;65074;50.436;8.672;2023-05-07T12:07:06;5.90;;;4.95;;
76256;SDS011;65074;50.436;8.672;2023-05-07T12:09:36;5.90;;;4.72;;
76256;SDS011;65074;50.436;8.672;2023-05-07T12:12:05;5.50;;;5.00;;
76256;SDS011;65074;50.436;8.672;2023-05-07T12:14:31;5.68;;;5.18;;
76256;SDS011;65074;50.436;8.672;2023-05-07T12:16:57;5.10;;;4.63;;
76256;SDS011;65074;50.436;8.672;2023-05-07T12:19:24;4.82;;;4.32;;
76256;SDS011;65074;50.436;8.672;2023-05-07T12:21:49;4.75;;;4.35;;
76256;SDS011;65074;50.436;8.672;2023-05-07T12:24:16;5.65;;;4.43;;
76256;SDS011;65074;50.436;8.672;2023-05-07T12:26:41;4.55;;;4.15;;
76256;SDS011;65074;50.436;8.672;2023-05-07T12:29:08;5.40;;;4.90;;
76256;SDS011;65074;50.436;8.672;2023-05-07T12:31:33;5.55;;;4.45;;
76256;SDS011;65074;50.436;8.672;2023-05-07T12:33:59;6.35;;;4.15;;
76256;SDS011;65074;50.436;8.672;2023-05-07T12:36:24;5.55;;;4.35;;
76256;SDS011;65074;50.436;8.672;2023-05-07T12:38:51;4.55;;;4.15;;
76256;SDS011;65074;50.436;8.672;2023-05-07T12:41:16;4.10;;;3.72;;
76256;SDS011;65074;50.436;8.672;2023-05-07T12:43:44;4.43;;;4.03;;
76256;SDS011;65074;50.436;8.672;2023-05-07T12:46:11;4.20;;;3.80;;
76256;SDS011;65074;50.436;8.672;2023-05-07T12:48:41;4.00;;;3.70;;
76256;SDS011;65074;50.436;8.672;2023-05-07T12:51:08;4.72;;;4.32;;
76256;SDS011;65074;50.436;8.672;2023-05-07T12:53:39;5.40;;;4.68;;
76256;SDS011;65074;50.436;8.672;2023-05-07T12:56:06;6.63;;;4.70;;
76256;SDS011;65074;50.436;8.672;2023-05-07T12:58:35;4.53;;;4.20;;
76256;SDS011;65074;50.436;8.672;2023-05-07T13:01:04;4.85;;;4.40;;
76256;SDS011;65074;50.436;8.672;2023-05-07T13:03:32;4.60;;;4.20;;
76256;SDS011;65074;50.436;8.672;2023-05-07T13:05:59;4.85;;;4.35;;
76256;SDS011;65074;50.436;8.672;2023-05-07T13:08:35;19.38;;;5.97;;
76256;SDS011;65074;50.436;8.672;2023-05-07T13:11:03;4.50;;;4.10;;
76256;SDS011;65074;50.436;8.672;2023-05-07T13:13:32;19.15;;;5.72;;
76256;SDS011;65074;50.436;8.672;2023-05-07T13:16:00;4.57;;;4.13;;
76256;SDS011;65074;50.436;8.672;2023-05-07T13:18:26;5.53;;;4.32;;
76256;SDS011;65074;50.436;8.672;2023-05-07T13:20:52;4.60;;;4.03;;
76256;SDS011;65074;50.436;8.672;2023-05-07T13:23:19;4.30;;;3.90;;
76256;SDS011;65074;50.436;8.672;2023-05-07T13:25:44;4.57;;;3.95;;
76256;SDS011;65074;50.436;8.672;2023-05-07T13:28:09;4.30;;;3.90;;
76256;SDS011;65074;50.436;8.672;2023-05-07T13:30:35;5.03;;;4.47;;
76256;SDS011;65074;50.436;8.672;2023-05-07T13:33:00;5.32;;;4.07;;
76256;SDS011;65074;50.436;8.672;2023-05-07T13:35:26;4.57;;;4.18;;
76256;SDS011;65074;50.436;8.672;2023-05-07T13:37:51;3.97;;;3.58;;
76256;SDS011;65074;50.436;8.672;2023-05-07T13:40:17;3.92;;;3.53;;
76256;SDS011;65074;50.436;8.672;2023-05-07T13:42:44;4.35;;;3.95;;
76256;SDS011;65074;50.436;8.672;2023-05-07T13:45:10;3.92;;;3.47;;
76256;SDS011;65074;50.436;8.672;2023-05-07T13:47:35;4.35;;;3.63;;
76256;SDS011;65074;50.436;8.672;2023-05-07T13:50:01;4.20;;;3.80;;
76256;SDS011;65074;50.436;8.672;2023-05-07T13:52:26;3.90;;;3.60;;
76256;SDS011;65074;50.436;8.672;2023-05-07T13:54:52;3.03;;;2.70;;
76256;SDS011;65074;50.436;8.672;2023-05-07T13:57:17;3.95;;;2.83;;
76256;SDS011;65074;50.436;8.672;2023-05-07T13:59:43;2.72;;;2.53;;
76256;SDS011;65074;50.436;8.672;2023-05-07T14:02:08;3.17;;;2.80;;
76256;SDS011;65074;50.436;8.672;2023-05-07T14:04:34;2.83;;;2.50;;
76256;SDS011;65074;50.436;8.672;2023-05-07T14:06:59;3.60;;;1.80;;
76256;SDS011;65074;50.436;8.672;2023-05-07T14:09:25;5.13;;;2.80;;
76256;SDS011;65074;50.436;8.672;2023-05-07T14:11:50;2.50;;;2.30;;
76256;SDS011;65074;50.436;8.672;2023-05-07T14:14:18;2.13;;;1.90;;
76256;SDS011;65074;50.436;8.672;2023-05-07T14:16:44;2.05;;;1.85;;
76256;SDS011;65074;50.436;8.672;2023-05-07T14:19:10;2.47;;;2.00;;
76256;SDS011;65074;50.436;8.672;2023-05-07T14:21:36;4.07;;;2.45;;
76256;SDS011;65074;50.436;8.672;2023-05-07T14:24:01;2.67;;;2.47;;
76256;SDS011;65074;50.436;8.672;2023-05-07T14:26:27;2.58;;;2.38;;
76256;SDS011;65074;50.436;8.672;2023-05-07T14:28:53;2.60;;;2.40;;
76256;SDS011;65074;50.436;8.672;2023-05-07T14:31:20;3.38;;;2.00;;
76256;SDS011;65074;50.436;8.672;2023-05-07T14:33:46;3.20;;;2.22;;
76256;SDS011;65074;50.436;8.672;2023-05-07T14:36:12;2.67;;;2.15;;
76256;SDS011;65074;50.436;8.672;2023-05-07T14:38:37;3.28;;;2.53;;
76256;SDS011;65074;50.436;8.672;2023-05-07T14:41:03;2.83;;;2.63;;
76256;SDS011;65074;50.436;8.672;2023-05-07T14:43:28;2.63;;;2.42;;
76256;SDS011;65074;50.436;8.672;2023-05-07T14:45:54;2.80;;;2.40;;
76256;SDS011;65074;50.436;8.672;2023-05-07T14:48:19;2.78;;;2.00;;
76256;SDS011;65074;50.436;8.672;2023-05-07T14:50:48;2.30;;;2.10;;
76256;SDS011;65074;50.436;8.672;2023-05-07T14:53:13;3.50;;;2.28;;
76256;SDS011;65074;50.436;8.672;2023-05-07T14:55:38;2.80;;;2.53;;
76256;SDS011;65074;50.436;8.672;2023-05-07T14:58:04;3.05;;;2.30;;
76256;SDS011;65074;50.436;8.672;2023-05-07T15:00:30;3.20;;;2.50;;
76256;SDS011;65074;50.436;8.672;2023-05-07T15:03:01;2.65;;;2.45;;